.
WxDataArchive / Data Records for 2013-10-17
2013-10-16 October 2013 2013-10-18

Data Records for Thursday, 17 October 2013

Time	Temp	Chill	HIndex	Humid	Dewpt	 Wind 	HiWind	WindDir	Rain 	Barom 
-----	----	-----	------	-----	-----	------	------	-------	-----	----- 
00:00	49.8	49.8	49.8	79	43.6	0	1	292	0.00	29.938 
00:05	49.9	49.9	49.9	79	43.6	0	1	292	0.00	29.938 
00:10	50.1	50.1	50.1	78	43.5	0	1	292	0.00	29.938 
00:15	50.1	50.1	50.1	78	43.5	0	0	---	0.00	29.935 
00:20	50.1	50.1	50.1	78	43.5	0	1	292	0.00	29.935 
00:25	50.2	50.2	50.2	78	43.6	0	1	292	0.00	29.935 
00:30	50.2	50.2	50.2	78	43.6	0	0	---	0.00	29.936 
00:35	50.2	50.2	50.2	78	43.6	0	1	292	0.00	29.936 
00:40	50.1	50.1	50.1	78	43.5	0	1	292	0.00	29.936 
00:45	49.9	49.9	49.9	78	43.3	0	0	---	0.00	29.935 
00:50	49.8	49.8	49.8	78	43.2	0	0	---	0.00	29.935 
00:55	49.6	49.6	49.6	79	43.4	0	0	---	0.00	29.935 
01:00	49.4	49.4	49.4	79	43.2	0	0	---	0.00	29.932 
01:05	49.2	49.2	49.2	79	43.0	0	1	292	0.00	29.932 
01:10	49.2	49.2	49.2	80	43.3	0	0	---	0.00	29.932 
01:15	48.9	48.9	48.9	80	43.0	0	0	---	0.00	29.930 
01:20	48.8	48.8	48.8	80	42.9	0	0	---	0.00	29.930 
01:25	48.6	48.6	48.6	81	43.0	0	0	---	0.00	29.930 
01:30	48.5	48.5	48.5	81	42.9	0	0	---	0.00	29.927 
01:35	48.3	48.3	48.3	81	42.7	0	0	---	0.00	29.927 
01:40	48.2	48.2	48.2	82	43.0	0	0	---	0.00	29.927 
01:45	48.0	48.0	48.0	82	42.8	0	0	---	0.00	29.926 
01:50	47.9	47.9	47.9	83	43.0	0	0	---	0.00	29.926 
01:55	47.7	47.7	47.7	83	42.8	0	0	---	0.00	29.926 
02:00	47.7	47.7	47.7	83	42.8	0	0	---	0.00	29.926 
02:05	47.7	47.7	47.7	84	43.1	0	0	---	0.00	29.926 
02:10	47.6	47.6	47.6	84	43.0	0	0	---	0.00	29.926 
02:15	47.6	47.6	47.6	84	43.0	0	0	---	0.00	29.926 
02:20	47.4	47.4	47.4	84	42.8	0	0	---	0.00	29.926 
02:25	47.3	47.3	47.3	84	42.7	0	0	---	0.00	29.926 
02:30	47.1	47.1	47.1	84	42.5	0	0	---	0.00	29.925 
02:35	47.0	47.0	47.0	84	42.4	0	0	---	0.00	29.925 
02:40	46.8	46.8	46.8	85	42.5	0	0	---	0.00	29.925 
02:45	46.5	46.5	46.5	85	42.2	0	0	---	0.00	29.924 
02:50	46.4	46.4	46.4	86	42.4	0	0	---	0.00	29.924 
02:55	46.2	46.2	46.2	86	42.2	0	0	---	0.00	29.924 
03:00	46.1	46.1	46.1	86	42.1	0	0	---	0.00	29.925 
03:05	46.0	46.0	46.0	87	42.4	0	0	---	0.00	29.925 
03:10	45.8	45.8	45.8	87	42.2	0	0	---	0.00	29.925 
03:15	45.7	45.7	45.7	87	42.1	0	0	---	0.00	29.921 
03:20	45.5	45.5	45.5	88	42.2	0	0	---	0.00	29.921 
03:25	45.4	45.4	45.4	88	42.1	0	0	---	0.00	29.921 
03:30	45.2	45.2	45.2	88	41.9	0	0	---	0.00	29.914 
03:35	45.1	45.1	45.1	88	41.8	0	0	---	0.00	29.914 
03:40	45.1	45.1	45.1	88	41.8	0	0	---	0.00	29.914 
03:45	44.9	44.9	44.9	88	41.6	0	0	---	0.00	29.913 
03:50	44.9	44.9	44.9	89	41.9	0	0	---	0.00	29.913 
03:55	44.8	44.8	44.8	89	41.8	0	0	---	0.00	29.913 
04:00	44.6	44.6	44.6	89	41.6	0	0	---	0.00	29.912 
04:05	44.6	44.6	44.6	89	41.6	0	0	---	0.00	29.912 
04:10	44.6	44.6	44.6	89	41.6	0	0	---	0.00	29.912 
04:15	44.6	44.6	44.6	89	41.6	0	0	---	0.00	29.907 
04:20	44.5	44.5	44.5	90	41.8	0	0	---	0.00	29.907 
04:25	44.5	44.5	44.5	90	41.8	0	0	---	0.00	29.907 
04:30	44.3	44.3	44.3	90	41.6	0	0	---	0.00	29.897 
04:35	44.2	44.2	44.2	90	41.5	0	0	---	0.00	29.897 
04:40	44.2	44.2	44.2	90	41.5	0	0	---	0.00	29.897 
04:45	44.2	44.2	44.2	90	41.5	0	0	---	0.00	29.895 
04:50	44.1	44.1	44.1	90	41.4	0	0	---	0.00	29.895 
04:55	43.9	43.9	43.9	90	41.2	0	0	---	0.00	29.895 
05:00	43.9	43.9	43.9	91	41.4	0	0	---	0.00	29.893 
05:05	43.8	43.8	43.8	91	41.3	0	0	---	0.00	29.893 
05:10	43.6	43.6	43.6	91	41.1	0	0	---	0.00	29.893 
05:15	43.6	43.6	43.6	91	41.1	0	0	---	0.00	29.899 
05:20	43.6	43.6	43.6	91	41.1	0	0	---	0.00	29.899 
05:25	43.6	43.6	43.6	91	41.1	0	0	---	0.00	29.899 
05:30	43.6	43.6	43.6	92	41.4	0	0	---	0.00	29.900 
05:35	43.5	43.5	43.5	92	41.3	0	0	---	0.00	29.900 
05:40	43.5	43.5	43.5	92	41.3	0	0	---	0.00	29.900 
05:45	43.5	43.5	43.5	92	41.3	0	0	---	0.00	29.900 
05:50	43.5	43.5	43.5	92	41.3	0	0	---	0.00	29.900 
05:55	43.3	43.3	43.3	92	41.1	0	0	---	0.00	29.900 
06:00	43.3	43.3	43.3	92	41.1	0	0	---	0.00	29.896 
06:05	43.2	43.2	43.2	92	41.0	0	0	---	0.00	29.896 
06:10	43.2	43.2	43.2	92	41.0	0	0	---	0.00	29.896 
06:15	43.2	43.2	43.2	92	41.0	0	0	---	0.00	29.910 
06:20	43.2	43.2	43.2	92	41.0	0	0	---	0.00	29.910 
06:25	43.2	43.2	43.2	92	41.0	0	0	---	0.00	29.910 
06:30	43.2	43.2	43.2	92	41.0	0	0	---	0.00	29.902 
06:35	43.2	43.2	43.2	92	41.0	0	0	---	0.00	29.902 
06:40	43.2	43.2	43.2	93	41.3	0	0	---	0.00	29.902 
06:45	43.5	43.5	43.5	93	41.6	0	0	---	0.00	29.901 
06:50	43.6	43.6	43.6	93	41.7	0	0	---	0.00	29.901 
06:55	43.6	43.6	43.6	93	41.7	0	0	---	0.00	29.901 
07:00	43.9	43.9	43.9	93	42.0	0	0	---	0.00	29.889 
07:05	43.9	43.9	43.9	93	42.0	0	0	---	0.00	29.889 
07:10	44.1	44.1	44.1	93	42.2	0	0	---	0.00	29.889 
07:15	44.1	44.1	44.1	93	42.2	0	0	---	0.00	29.891 
07:20	44.2	44.2	44.2	93	42.3	0	0	---	0.00	29.891 
07:25	44.2	44.2	44.2	93	42.3	0	0	---	0.00	29.891 
07:30	44.2	44.2	44.2	93	42.3	0	0	---	0.00	29.891 
07:35	44.2	44.2	44.2	93	42.3	0	0	---	0.00	29.891 
07:40	44.1	44.1	44.1	93	42.2	0	0	---	0.00	29.891 
07:45	43.9	43.9	43.9	93	42.0	0	0	---	0.00	29.893 
07:50	43.9	43.9	43.9	93	42.0	0	0	---	0.00	29.893 
07:55	43.9	43.9	43.9	93	42.0	0	0	---	0.00	29.893 
08:00	44.1	44.1	44.1	93	42.2	0	0	---	0.00	29.884 
08:05	44.2	44.2	44.2	93	42.3	0	0	---	0.00	29.884 
08:10	44.3	44.3	44.3	94	42.7	0	0	---	0.00	29.884 
08:15	44.5	44.5	44.5	94	42.9	0	0	---	0.00	29.885 
08:20	44.6	44.6	44.6	94	43.0	0	0	---	0.00	29.885 
08:25	44.8	44.8	44.8	94	43.2	0	0	---	0.00	29.885 
08:30	44.9	44.9	44.9	94	43.3	0	0	---	0.00	29.904 
08:35	45.1	45.1	45.1	94	43.5	0	0	---	0.00	29.904 
08:40	45.2	45.2	45.2	94	43.6	0	0	---	0.00	29.904 
08:45	45.4	45.4	45.4	94	43.8	0	0	---	0.00	29.911 
08:50	45.5	45.5	45.5	94	43.9	0	0	---	0.00	29.911 
08:55	45.7	45.7	45.7	93	43.8	0	1	292	0.00	29.911 
09:00	45.8	45.8	45.8	93	43.9	0	1	292	0.00	29.898 
09:05	46.0	46.0	46.0	93	44.1	0	0	---	0.00	29.898 
09:10	46.1	46.1	46.1	93	44.2	0	0	---	0.00	29.898 
09:15	46.2	46.2	46.2	93	44.3	0	0	---	0.00	29.898 
09:20	46.4	46.4	46.4	93	44.5	0	0	---	0.00	29.898 
09:25	46.5	46.5	46.5	93	44.6	0	0	---	0.00	29.898 
09:30	46.7	46.7	46.7	93	44.8	0	0	---	0.00	29.894 
09:35	46.8	46.8	46.8	93	44.9	0	0	---	0.00	29.894 
09:40	46.8	46.8	46.8	93	44.9	0	0	---	0.00	29.894 
09:45	46.8	46.8	46.8	93	44.9	0	0	---	0.01	29.889 
09:50	46.8	46.8	46.8	93	44.9	0	0	---	0.01	29.889 
09:55	47.0	47.0	47.0	93	45.1	0	0	---	0.01	29.889 
10:00	47.0	47.0	47.0	93	45.1	0	0	---	0.01	29.888 
10:05	46.8	46.8	46.8	93	44.9	0	1	292	0.01	29.888 
10:10	46.8	46.8	46.8	93	44.9	0	0	---	0.00	29.888 
10:15	46.8	46.8	46.8	93	44.9	0	1	292	0.01	29.881 
10:20	46.8	46.8	46.8	93	44.9	0	1	292	0.01	29.881 
10:25	47.0	47.0	47.0	93	45.1	0	1	292	0.00	29.881 
10:30	47.0	47.0	47.0	93	45.1	0	0	---	0.01	29.881 
10:35	47.0	47.0	47.0	93	45.1	0	0	---	0.00	29.881 
10:40	47.0	47.0	47.0	93	45.1	0	1	292	0.00	29.881 
10:45	47.0	47.0	47.0	93	45.1	0	0	---	0.01	29.880 
10:50	46.8	46.8	46.8	93	44.9	0	0	---	0.00	29.880 
10:55	47.0	47.0	47.0	94	45.4	0	0	---	0.00	29.880 
11:00	47.1	47.1	47.1	94	45.5	0	0	---	0.00	29.874 
11:05	47.1	47.1	47.1	94	45.5	0	0	---	0.00	29.874 
11:10	47.1	47.1	47.1	94	45.5	0	0	---	0.00	29.874 
11:15	47.1	47.1	47.1	94	45.5	0	1	292	0.00	29.882 
11:20	47.1	47.1	47.1	94	45.5	0	1	292	0.00	29.882 
11:25	47.3	47.3	47.3	94	45.7	0	1	292	0.01	29.882 
11:30	47.3	47.3	47.3	94	45.7	0	0	---	0.00	29.879 
11:35	47.4	47.4	47.4	94	45.8	0	1	292	0.00	29.879 
11:40	47.6	47.6	47.6	94	46.0	0	0	---	0.00	29.879 
11:45	47.6	47.6	47.6	94	46.0	0	0	---	0.01	29.866 
11:50	47.9	47.9	47.9	94	46.3	0	1	292	0.00	29.866 
11:55	48.0	48.0	48.0	95	46.6	0	0	---	0.00	29.866 
12:00	48.2	48.2	48.2	94	46.6	0	1	292	0.00	29.867 
12:05	48.0	48.0	48.0	94	46.4	0	1	292	0.01	29.867 
12:10	48.0	48.0	48.0	94	46.4	0	1	292	0.00	29.867 
12:15	48.0	48.0	48.0	95	46.6	0	1	292	0.00	29.868 
12:20	48.3	48.3	48.3	95	46.9	0	1	292	0.00	29.868 
12:25	48.3	48.3	48.3	94	46.7	0	1	292	0.00	29.868 
12:30	48.6	48.6	48.6	95	47.2	0	1	292	0.00	29.866 
12:35	48.6	48.6	48.6	95	47.2	0	1	292	0.00	29.866 
12:40	48.8	48.8	48.8	95	47.4	0	2	292	0.00	29.866 
12:45	48.8	48.8	48.8	94	47.1	0	1	292	0.00	29.866 
12:50	48.8	48.8	48.8	94	47.1	0	1	292	0.00	29.866 
12:55	48.9	48.9	48.9	94	47.2	0	1	292	0.00	29.866 
13:00	48.9	48.9	48.9	94	47.2	0	1	292	0.00	29.862 
13:05	49.2	49.2	49.2	95	47.8	0	1	292	0.00	29.862 
13:10	49.4	49.4	49.4	94	47.7	0	3	248	0.00	29.862 
13:15	49.5	49.5	49.5	94	47.8	0	2	248	0.00	29.851 
13:20	49.6	49.6	49.6	94	47.9	0	2	248	0.00	29.851 
13:25	49.8	49.8	49.8	94	48.1	0	1	248	0.00	29.851 
13:30	49.8	49.8	49.8	94	48.1	0	2	248	0.00	29.848 
13:35	49.8	49.8	49.8	94	48.1	0	1	248	0.00	29.848 
13:40	49.8	49.8	49.8	94	48.1	0	1	248	0.00	29.848 
13:45	50.2	50.2	50.2	94	48.5	0	1	248	0.01	29.839 
13:50	50.5	50.5	50.5	94	48.8	0	3	248	0.00	29.839 
13:55	50.7	50.7	50.7	93	48.7	0	2	248	0.00	29.839 
14:00	50.4	50.4	50.4	93	48.5	0	1	248	0.00	29.833 
14:05	50.1	50.1	50.1	92	47.9	0	2	248	0.00	29.833 
14:10	49.8	49.8	49.8	92	47.6	1	4	248	0.00	29.833 
14:15	49.6	49.6	49.6	92	47.4	0	3	248	0.00	29.835 
14:20	49.6	49.6	49.6	91	47.1	0	1	248	0.00	29.835 
14:25	49.6	49.6	49.6	91	47.1	0	3	248	0.00	29.835 
14:30	49.5	49.5	49.5	90	46.7	1	4	248	0.00	29.834 
14:35	49.4	49.4	49.4	90	46.6	1	4	270	0.00	29.834 
14:40	49.4	49.4	49.4	90	46.6	1	3	248	0.00	29.834 
14:45	49.4	49.4	49.4	90	46.6	1	4	292	0.00	29.832 
14:50	49.4	49.4	49.4	90	46.6	0	2	292	0.00	29.832 
14:55	49.8	49.8	49.8	91	47.3	0	4	292	0.00	29.832 
15:00	50.1	50.1	50.1	91	47.6	0	2	270	0.00	29.823 
15:05	50.2	50.2	50.2	90	47.4	1	3	270	0.00	29.823 
15:10	50.2	50.2	50.2	89	47.1	1	4	270	0.00	29.823 
15:15	50.2	50.2	50.2	88	46.8	1	5	270	0.00	29.822 
15:20	50.2	50.2	50.2	87	46.5	1	3	270	0.00	29.822 
15:25	50.2	50.2	50.2	86	46.2	0	2	270	0.00	29.822 
15:30	50.2	50.2	50.2	86	46.2	0	4	270	0.00	29.821 
15:35	50.4	50.4	50.4	85	46.1	0	3	270	0.00	29.821 
15:40	50.4	50.4	50.4	84	45.7	1	3	248	0.00	29.821 
15:45	50.8	50.8	50.8	84	46.1	0	3	270	0.00	29.818 
15:50	51.0	51.0	51.0	83	46.0	0	2	270	0.00	29.818 
15:55	51.0	51.0	51.0	83	46.0	1	4	270	0.00	29.818 
16:00	50.8	50.8	50.8	82	45.5	1	3	248	0.00	29.819 
16:05	50.7	50.7	50.7	82	45.4	0	3	248	0.00	29.819 
16:10	50.5	50.5	50.5	83	45.5	0	2	248	0.00	29.819 
16:15	50.4	50.4	50.4	82	45.1	1	7	270	0.00	29.821 
16:20	50.5	50.5	50.5	83	45.5	1	5	270	0.00	29.821 
16:25	50.5	50.5	50.5	83	45.5	0	3	270	0.00	29.821 
16:30	50.7	50.7	50.7	83	45.7	0	3	270	0.00	29.821 
16:35	50.5	50.5	50.5	85	46.2	1	4	270	0.00	29.821 
16:40	50.4	50.4	50.4	86	46.4	1	3	248	0.00	29.821 
16:45	50.5	50.5	50.5	87	46.8	1	4	270	0.00	29.821 
16:50	50.5	50.5	50.5	87	46.8	1	4	270	0.00	29.821 
16:55	50.4	50.4	50.4	85	46.1	2	7	270	0.00	29.821 
17:00	50.4	50.4	50.4	85	46.1	0	2	270	0.00	29.818 
17:05	50.4	50.4	50.4	86	46.4	1	4	270	0.00	29.818 
17:10	50.4	50.4	50.4	85	46.1	1	6	270	0.00	29.818 
17:15	50.2	50.2	50.2	86	46.2	1	4	270	0.00	29.822 
17:20	50.1	50.1	50.1	87	46.4	1	4	248	0.00	29.822 
17:25	50.1	50.1	50.1	87	46.4	0	2	248	0.00	29.822 
17:30	50.1	50.1	50.1	87	46.4	1	6	270	0.00	29.822 
17:35	50.1	50.1	50.1	86	46.1	1	4	270	0.00	29.822 
17:40	50.1	50.1	50.1	86	46.1	0	4	270	0.00	29.822 
17:45	50.2	50.2	50.2	85	45.9	1	3	270	0.00	29.823 
17:50	50.4	50.4	50.4	84	45.7	0	2	270	0.00	29.823 
17:55	50.2	50.2	50.2	84	45.6	1	3	270	0.00	29.823 
18:00	50.2	50.2	50.2	83	45.2	1	2	270	0.00	29.823 
18:05	50.1	50.1	50.1	83	45.1	1	4	270	0.00	29.823 
18:10	50.1	50.1	50.1	83	45.1	1	3	270	0.00	29.823 
18:15	50.1	50.1	50.1	83	45.1	0	3	270	0.00	29.825 
18:20	49.9	49.9	49.9	83	44.9	0	2	270	0.00	29.825 
18:25	49.9	49.9	49.9	83	44.9	0	2	270	0.00	29.825 
18:30	49.9	49.9	49.9	83	44.9	0	2	270	0.00	29.836 
18:35	49.9	49.9	49.9	83	44.9	1	3	270	0.00	29.836 
18:40	49.9	49.9	49.9	83	44.9	0	3	270	0.00	29.836 
18:45	49.9	49.9	49.9	83	44.9	2	5	270	0.00	29.840 
18:50	49.9	49.9	49.9	83	44.9	1	4	292	0.00	29.840 
18:55	49.8	49.8	49.8	83	44.8	1	3	292	0.00	29.840 
19:00	49.8	49.8	49.8	82	44.5	0	3	292	0.00	29.844 
19:05	49.6	49.6	49.6	82	44.3	1	3	270	0.00	29.844 
19:10	49.6	49.6	49.6	81	44.0	0	4	270	0.00	29.844 
19:15	49.6	49.6	49.6	81	44.0	1	4	270	0.00	29.852 
19:20	49.6	49.6	49.6	81	44.0	0	2	270	0.00	29.852 
19:25	49.6	49.6	49.6	81	44.0	0	3	270	0.00	29.852 
19:30	49.6	49.6	49.6	81	44.0	0	1	270	0.00	29.859 
19:35	49.6	49.6	49.6	81	44.0	0	2	270	0.00	29.859 
19:40	49.6	49.6	49.6	80	43.7	1	3	270	0.00	29.859 
19:45	49.6	49.6	49.6	80	43.7	1	3	270	0.00	29.863 
19:50	49.6	49.6	49.6	80	43.7	0	1	270	0.00	29.863 
19:55	49.6	49.6	49.6	80	43.7	0	2	270	0.00	29.863 
20:00	49.5	49.5	49.5	80	43.6	0	1	315	0.00	29.867 
20:05	49.5	49.5	49.5	79	43.3	1	3	315	0.00	29.867 
20:10	49.5	49.5	49.5	79	43.3	1	4	270	0.00	29.867 
20:15	49.5	49.5	49.5	78	42.9	1	3	270	0.00	29.870 
20:20	49.4	49.4	49.4	78	42.8	1	4	270	0.00	29.870 
20:25	49.4	49.4	49.4	79	43.2	0	2	270	0.00	29.870 
20:30	49.4	49.4	49.4	79	43.2	0	2	270	0.00	29.881 
20:35	49.4	49.4	49.4	79	43.2	0	3	270	0.00	29.881 
20:40	49.4	49.4	49.4	79	43.2	0	2	270	0.00	29.881 
20:45	49.4	49.4	49.4	79	43.2	0	1	270	0.00	29.885 
20:50	49.4	49.4	49.4	79	43.2	0	3	270	0.00	29.885 
20:55	49.4	49.4	49.4	79	43.2	0	3	270	0.00	29.885 
21:00	49.4	49.4	49.4	79	43.2	0	2	270	0.00	29.885 
21:05	49.4	49.4	49.4	79	43.2	0	2	270	0.00	29.885 
21:10	49.4	49.4	49.4	79	43.2	0	1	270	0.00	29.885 
21:15	49.2	49.2	49.2	79	43.0	0	2	292	0.00	29.886 
21:20	49.2	49.2	49.2	79	43.0	0	1	292	0.00	29.886 
21:25	49.2	49.2	49.2	79	43.0	0	1	292	0.00	29.886 
21:30	49.1	49.1	49.1	79	42.9	0	1	292	0.00	29.892 
21:35	48.9	48.9	48.9	79	42.7	0	2	292	0.00	29.892 
21:40	48.9	48.9	48.9	79	42.7	0	1	292	0.00	29.892 
21:45	48.8	48.8	48.8	79	42.6	0	3	292	0.00	29.895 
21:50	48.6	48.6	48.6	79	42.4	0	2	292	0.00	29.895 
21:55	48.5	48.5	48.5	80	42.6	0	2	292	0.00	29.895 
22:00	48.3	48.3	48.3	80	42.4	0	1	292	0.00	29.898 
22:05	48.0	48.0	48.0	81	42.5	0	0	---	0.00	29.898 
22:10	47.7	47.7	47.7	81	42.2	0	1	292	0.00	29.898 
22:15	47.6	47.6	47.6	82	42.4	0	1	292	0.00	29.900 
22:20	47.4	47.4	47.4	82	42.2	0	1	292	0.00	29.900 
22:25	47.3	47.3	47.3	82	42.1	0	0	---	0.00	29.900 
22:30	47.0	47.0	47.0	83	42.1	0	0	---	0.00	29.898 
22:35	46.8	46.8	46.8	83	41.9	0	1	292	0.00	29.898 
22:40	46.7	46.7	46.7	83	41.8	0	0	---	0.00	29.898 
22:45	46.5	46.5	46.5	83	41.6	0	1	292	0.00	29.903 
22:50	46.4	46.4	46.4	83	41.5	0	1	292	0.00	29.903 
22:55	46.2	46.2	46.2	84	41.6	0	0	---	0.00	29.903 
23:00	46.2	46.2	46.2	84	41.6	0	0	---	0.00	29.914 
23:05	46.0	46.0	46.0	84	41.4	0	0	---	0.00	29.914 
23:10	45.8	45.8	45.8	84	41.2	0	0	---	0.00	29.914 
23:15	45.7	45.7	45.7	84	41.1	0	1	292	0.00	29.909 
23:20	45.7	45.7	45.7	85	41.5	0	0	---	0.00	29.909 
23:25	45.5	45.5	45.5	85	41.3	0	0	---	0.00	29.909 
23:30	45.4	45.4	45.4	85	41.2	0	0	---	0.00	29.911 
23:35	45.2	45.2	45.2	85	41.0	0	0	---	0.00	29.911 
23:40	44.9	44.9	44.9	86	41.0	0	0	---	0.00	29.911 
23:45	44.6	44.6	44.6	86	40.7	0	0	---	0.00	29.911 
23:50	44.5	44.5	44.5	86	40.6	0	0	---	0.00	29.911 
23:55	44.3	44.3	44.3	87	40.7	0	0	---	0.00	29.911 

CoCoRaHS
IN-AL-39
A2 Web Hosting
Creative Commons License
GoDaddy
search engine by freefind advanced

loaded 2018-11-16 11:28:59 • last modified 2010-11-18 10:43:29
Privacy PolicyDisclaimer
• wx.awcolley.com is powered by PmWiki v.2002016 •
• all content (unless otherwise noted) © 2018 A W Colley